Time;durP1;ratioP1;P1;durP2;ratioP2;P2;SDS_P1;SDS_P2;PMS_P1;PMS_P2;Temp;Humidity;BMP_temperature;BMP_pressure;BME280_temperature;BME280_humidity;BME280_pressure;Samples;Min_cycle;Max_cycle;Signal;HPM_P1;HPM_P2
2022/01/18 00:01:54;;;;;;;26.60;3.40;;;;;;;4.59;100.00;102505.91;5226282;28;20059;-79
2022/01/18 00:04:27;;;;;;;25.80;3.90;;;;;;;4.55;100.00;102496.34;5226633;28;20678;-79
2022/01/18 00:06:57;;;;;;;26.58;3.05;;;;;;;4.58;100.00;102489.53;5226890;28;20036;-79
2022/01/18 00:09:28;;;;;;;26.85;3.35;;;;;;;4.64;100.00;102489.63;5226346;28;20489;-79
2022/01/18 00:12:25;;;;;;;32.17;4.00;;;;;;;4.59;100.00;102500.75;5228115;28;20363;-79
2022/01/18 00:15:05;;;;;;;24.50;3.30;;;;;;;4.74;100.00;102501.94;5226738;28;20021;-79
2022/01/18 00:17:42;;;;;;;22.25;3.33;;;;;;;4.78;100.00;102502.88;5226656;28;20043;-79
2022/01/18 00:20:19;;;;;;;26.48;3.55;;;;;;;4.73;100.00;102509.66;5226966;28;20039;-79
2022/01/18 00:22:49;;;;;;;24.20;3.13;;;;;;;4.76;100.00;102513.19;5226980;28;20028;-80
2022/01/18 00:25:19;;;;;;;25.25;3.55;;;;;;;4.75;100.00;102508.84;5227423;28;20257;-79
2022/01/18 00:27:49;;;;;;;23.00;3.85;;;;;;;4.86;100.00;102511.63;5226679;28;20049;-79
2022/01/18 00:33:39;;;;;;;28.67;3.72;;;;;;;4.91;100.00;102523.84;5225903;28;20099;-79
2022/01/18 00:36:22;;;;;;;19.15;2.80;;;;;;;4.97;100.00;102521.34;5220147;28;20025;-78
2022/01/18 00:38:54;;;;;;;21.73;3.10;;;;;;;4.96;100.00;102523.94;5216881;28;20426;-79
2022/01/18 00:41:26;;;;;;;19.95;3.05;;;;;;;4.91;100.00;102518.66;5226647;28;20043;-79
2022/01/18 00:43:56;;;;;;;25.48;4.07;;;;;;;4.86;100.00;102528.06;5226611;28;20021;-79
2022/01/18 00:46:27;;;;;;;20.70;3.85;;;;;;;4.78;100.00;102534.81;5227149;28;20386;-79
2022/01/18 00:49:00;;;;;;;34.28;4.38;;;;;;;4.90;100.00;102535.03;5226945;28;20655;-79
2022/01/18 00:51:36;;;;;;;25.13;3.35;;;;;;;4.97;100.00;102536.88;5225556;28;20131;-79
2022/01/18 00:54:09;;;;;;;22.30;3.50;;;;;;;5.00;100.00;102539.53;5225820;28;20028;-79
2022/01/18 00:56:42;;;;;;;31.20;3.80;;;;;;;5.12;100.00;102539.75;5225596;28;20021;-79
2022/01/18 00:59:12;;;;;;;20.85;3.35;;;;;;;5.04;100.00;102543.94;5225542;28;20028;-79
2022/01/18 01:01:43;;;;;;;31.60;3.63;;;;;;;5.02;100.00;102550.81;5226266;28;20025;-79
2022/01/18 01:04:13;;;;;;;20.75;3.67;;;;;;;4.98;100.00;102553.31;5227223;28;20052;-79
2022/01/18 01:06:43;;;;;;;23.65;3.38;;;;;;;5.05;100.00;102543.09;5225285;28;20040;-79
2022/01/18 01:09:14;;;;;;;27.20;3.20;;;;;;;5.02;100.00;102545.63;5226757;28;20021;-79
2022/01/18 01:11:44;;;;;;;24.25;3.53;;;;;;;5.03;100.00;102542.22;5226521;28;20032;-79
2022/01/18 01:14:19;;;;;;;26.50;3.63;;;;;;;5.12;100.00;102537.16;5227523;28;20013;-80
2022/01/18 01:17:00;;;;;;;;;;;;;;;5.13;100.00;102541.50;5226922;28;20024;-80
2022/01/18 01:19:49;;;;;;;23.60;3.40;;;;;;;5.13;100.00;102549.28;5226352;28;20378;-80
2022/01/18 01:42:04;;;;;;;21.38;3.08;;;;;;;5.33;100.00;102558.28;5223935;28;20341;-79
2022/01/18 01:44:45;;;;;;;22.40;2.72;;;;;;;5.36;100.00;102555.72;5225314;28;20064;-79
2022/01/18 01:47:19;;;;;;;23.80;3.10;;;;;;;5.32;100.00;102551.34;5224654;28;20041;-79
2022/01/18 01:49:51;;;;;;;20.65;2.83;;;;;;;5.28;100.00;102552.16;5225831;28;20056;-79
2022/01/18 01:52:22;;;;;;;18.80;3.47;;;;;;;5.29;100.00;102559.06;5225127;28;20398;-79
2022/01/18 01:54:56;;;;;;;22.48;3.55;;;;;;;5.28;100.00;102565.09;5226141;28;20112;-79
2022/01/18 01:57:26;;;;;;;20.67;2.88;;;;;;;5.18;100.00;102568.38;5226680;28;20387;-80
2022/01/18 01:59:57;;;;;;;19.83;3.35;;;;;;;5.30;100.00;102568.59;5225537;28;20055;-79
2022/01/18 02:02:30;;;;;;;23.30;3.35;;;;;;;5.37;100.00;102560.09;5226365;28;20048;-79
2022/01/18 02:05:01;;;;;;;27.55;3.00;;;;;;;5.29;100.00;102563.41;5225265;28;20033;-79
2022/01/18 02:07:31;;;;;;;21.67;3.25;;;;;;;5.15;100.00;102557.94;5226602;28;20712;-79
2022/01/18 02:10:03;;;;;;;20.95;4.07;;;;;;;5.16;100.00;102559.69;5226027;28;20021;-79
2022/01/18 02:12:34;;;;;;;26.90;3.50;;;;;;;5.17;100.00;102558.84;5223651;28;20485;-80
2022/01/18 02:15:17;;;;;;;20.25;3.72;;;;;;;5.24;100.00;102554.66;5226175;28;20025;-80
2022/01/18 02:23:31;;;;;;;20.48;2.83;;;;;;;5.21;100.00;102546.81;5224254;28;20055;-80
2022/01/18 02:26:01;;;;;;;30.33;3.47;;;;;;;5.31;100.00;102543.56;5224746;28;20028;-81
2022/01/18 02:28:31;;;;;;;16.27;2.38;;;;;;;5.35;100.00;102551.38;5225680;28;20017;-81
2022/01/18 02:31:02;;;;;;;16.75;2.47;;;;;;;5.30;100.00;102547.84;5229674;28;20025;-81
2022/01/18 02:33:32;;;;;;;24.02;4.18;;;;;;;5.46;100.00;102535.19;5227485;28;20025;-79
2022/01/18 02:36:07;;;;;;;27.23;3.15;;;;;;;5.42;100.00;102537.69;5228711;28;20095;-77
2022/01/18 02:38:38;;;;;;;23.02;3.38;;;;;;;5.33;100.00;102534.94;5227952;28;20027;-80
2022/01/18 02:41:08;;;;;;;18.38;2.90;;;;;;;5.39;100.00;102527.28;5227538;28;20033;-81
2022/01/18 02:43:50;;;;;;;18.95;2.85;;;;;;;5.44;100.00;102520.44;5227242;28;20025;-77
2022/01/18 02:46:20;;;;;;;15.43;2.45;;;;;;;5.44;100.00;102530.81;5227487;28;20394;-81
2022/01/18 02:48:50;;;;;;;25.48;2.80;;;;;;;5.46;100.00;102534.31;5226847;28;20059;-81
2022/01/18 02:51:21;;;;;;;17.85;2.20;;;;;;;5.44;100.00;102536.00;5229467;28;20025;-78
2022/01/18 02:54:04;;;;;;;16.85;2.30;;;;;;;5.51;100.00;102533.53;5224952;28;20434;-81
2022/01/18 02:56:40;;;;;;;19.73;2.50;;;;;;;5.59;100.00;102526.75;5226869;28;20116;-79
2022/01/18 02:59:21;;;;;;;17.75;2.10;;;;;;;5.52;100.00;102539.56;5252089;22;20474;-79
2022/01/18 03:04:42;;;;;;;19.88;3.90;;;;;;;5.51;100.00;102551.69;5186164;28;20040;-80
2022/01/18 03:07:12;;;;;;;20.20;2.78;;;;;;;5.51;100.00;102546.50;5194705;28;20036;-80
2022/01/18 03:09:43;;;;;;;14.43;2.55;;;;;;;5.46;100.00;102555.06;5184295;28;20030;-80
2022/01/18 03:12:15;;;;;;;17.65;3.05;;;;;;;5.55;100.00;102561.25;5179206;28;20037;-80
2022/01/18 03:14:45;;;;;;;15.07;2.15;;;;;;;5.56;100.00;102564.75;5175116;28;20017;-79
2022/01/18 03:17:16;;;;;;;17.02;2.25;;;;;;;5.56;100.00;102562.16;5176550;28;20022;-79
2022/01/18 03:19:46;;;;;;;15.65;2.75;;;;;;;5.57;100.00;102564.75;5185914;28;20084;-80
2022/01/18 03:22:17;;;;;;;24.42;2.97;;;;;;;5.61;100.00;102570.88;5167171;28;20391;-80
2022/01/18 03:30:18;;;;;;;14.00;1.95;;;;;;;5.52;100.00;102565.50;5168568;28;20041;-80
2022/01/18 03:32:49;;;;;;;13.05;1.70;;;;;;;5.58;100.00;102560.44;5174714;28;20018;-80
2022/01/18 03:35:21;;;;;;;11.60;1.65;;;;;;;5.53;100.00;102562.06;5161382;28;20022;-80
2022/01/18 03:37:52;;;;;;;11.98;1.75;;;;;;;5.55;100.00;102571.63;5173088;28;20022;-80
2022/01/18 03:40:23;;;;;;;15.27;2.05;;;;;;;5.51;100.00;102568.94;5178801;28;20108;-79
2022/01/18 03:42:55;;;;;;;9.95;1.83;;;;;;;5.56;100.00;102572.53;5182123;28;20026;-80
2022/01/18 03:45:31;;;;;;;12.43;2.00;;;;;;;5.63;100.00;102572.66;5163333;28;20026;-80
2022/01/18 03:48:04;;;;;;;12.77;1.70;;;;;;;5.65;100.00;102568.34;5153287;28;20026;-80
2022/01/18 03:50:35;;;;;;;18.15;2.00;;;;;;;5.66;100.00;102577.00;5155578;28;20030;-79
2022/01/18 03:53:05;;;;;;;7.68;1.70;;;;;;;5.60;100.00;102582.09;5163701;28;20033;-79
2022/01/18 03:55:36;;;;;;;8.60;1.40;;;;;;;5.60;100.00;102579.50;5156880;28;20034;-79
2022/01/18 03:58:06;;;;;;;10.50;1.60;;;;;;;5.66;100.00;102582.19;5156125;28;20030;-79
2022/01/18 04:00:36;;;;;;;4.10;1.13;;;;;;;5.57;100.00;102587.22;5158141;28;20035;-79
2022/01/18 04:03:07;;;;;;;11.88;1.40;;;;;;;5.59;100.00;102591.56;5169158;28;20021;-79
2022/01/18 04:05:37;;;;;;;8.15;1.25;;;;;;;5.61;100.00;102589.03;5171840;28;20030;-79
2022/01/18 04:08:08;;;;;;;8.35;1.00;;;;;;;5.54;100.00;102584.59;5161651;28;20033;-79
2022/01/18 04:10:38;;;;;;;8.07;1.10;;;;;;;5.66;100.00;102584.78;5156432;28;20045;-79
2022/01/18 04:13:08;;;;;;;7.53;1.10;;;;;;;5.58;100.00;102594.16;5171588;28;20029;-80
2022/01/18 04:15:39;;;;;;;5.05;0.60;;;;;;;5.55;100.00;102597.56;5169580;28;20030;-80
2022/01/18 04:29:00;;;;;;;8.77;1.02;;;;;;;5.58;100.00;102604.53;5172300;28;20499;-79
2022/01/18 04:31:30;;;;;;;5.40;1.13;;;;;;;5.53;100.00;102604.44;5170416;28;20033;-79
2022/01/18 04:34:01;;;;;;;6.35;1.05;;;;;;;5.61;100.00;102600.25;5173022;28;20022;-80
2022/01/18 04:36:31;;;;;;;3.47;0.73;;;;;;;5.63;100.00;102610.66;5167487;28;20033;-80
2022/01/18 04:39:02;;;;;;;5.68;0.93;;;;;;;5.63;100.00;102605.47;5175424;28;20113;-80
2022/01/18 04:41:35;;;;;;;10.15;1.50;;;;;;;5.61;100.00;102620.16;5166582;28;20065;-80
2022/01/18 04:44:09;;;;;;;7.22;1.35;;;;;;;5.53;100.00;102613.94;5175249;28;20190;-80
2022/01/18 04:49:29;;;;;;;6.22;1.13;;;;;;;5.53;100.00;102609.63;5167777;28;20073;-79
2022/01/18 04:51:59;;;;;;;4.70;1.00;;;;;;;5.56;100.00;102617.47;5165017;28;20034;-79
2022/01/18 04:54:30;;;;;;;6.82;1.25;;;;;;;5.41;100.00;102612.00;5172206;28;20101;-79
2022/01/18 04:59:34;;;;;;;7.05;1.13;;;;;;;5.51;100.00;102615.63;5175392;28;20040;-79
2022/01/18 05:02:05;;;;;;;10.35;1.40;;;;;;;5.46;100.00;102612.97;5175656;28;20029;-79
2022/01/18 05:04:35;;;;;;;7.40;1.15;;;;;;;5.40;100.00;102609.41;5176392;28;20050;-79
2022/01/18 05:07:08;;;;;;;8.13;1.13;;;;;;;5.30;100.00;102611.81;5173069;28;20052;-80
2022/01/18 05:09:39;;;;;;;9.40;1.80;;;;;;;5.33;100.00;102615.31;5162532;28;20027;-79
2022/01/18 05:12:16;;;;;;;11.20;1.67;;;;;;;5.20;100.00;102613.34;5170982;28;20033;-79
2022/01/18 05:14:48;;;;;;;15.43;1.73;;;;;;;5.13;100.00;102626.16;5169002;28;20024;-79
2022/01/18 05:18:10;;;;;;;7.82;1.20;;;;;;;5.16;100.00;102626.22;5168352;28;20114;-80
2022/01/18 05:20:40;;;;;;;12.43;1.50;;;;;;;5.01;100.00;102621.59;5164416;28;20038;-80
2022/01/18 05:23:10;;;;;;;9.00;1.60;;;;;;;4.96;100.00;102620.63;5167390;28;20033;-80
2022/01/18 05:25:41;;;;;;;11.45;1.55;;;;;;;4.99;100.00;102625.03;5172889;28;20512;-80
2022/01/18 05:28:12;;;;;;;11.80;2.38;;;;;;;4.96;100.00;102622.38;5176552;28;20052;-80
2022/01/18 05:30:43;;;;;;;10.52;2.38;;;;;;;4.84;100.00;102633.34;5173905;28;20037;-80
2022/01/18 05:33:14;;;;;;;10.25;1.85;;;;;;;4.79;100.00;102637.56;5182377;28;20026;-80
2022/01/18 05:35:44;;;;;;;7.15;1.88;;;;;;;4.75;100.00;102638.34;5169907;28;20068;-80
2022/01/18 05:38:15;;;;;;;8.63;2.13;;;;;;;4.70;100.00;102639.97;5164163;28;20030;-80
2022/01/18 05:40:45;;;;;;;17.48;2.60;;;;;;;4.82;100.00;102636.75;5163708;28;20025;-80
2022/01/18 05:43:17;;;;;;;14.00;2.63;;;;;;;4.87;100.00;102645.50;5172966;28;20504;-80
2022/01/18 05:45:47;;;;;;;13.07;3.28;;;;;;;4.75;100.00;102638.34;5152397;28;20065;-79
2022/01/18 05:48:17;;;;;;;11.93;3.53;;;;;;;4.82;100.00;102645.38;5172517;28;20422;-80
2022/01/18 05:50:47;;;;;;;15.15;2.38;;;;;;;4.92;100.00;102642.16;5173521;28;20027;-80
2022/01/18 05:53:18;;;;;;;12.82;2.42;;;;;;;4.98;100.00;102655.22;5182650;28;20336;-80
2022/01/18 05:55:48;;;;;;;14.98;3.05;;;;;;;4.94;100.00;102650.84;5179904;28;20048;-80
2022/01/18 05:58:19;;;;;;;12.65;2.42;;;;;;;4.92;100.00;102647.34;5170918;28;20014;-80
2022/01/18 06:00:52;;;;;;;9.02;2.28;;;;;;;5.02;100.00;102659.66;5172931;28;20037;-80
2022/01/18 06:03:34;;;;;;;8.40;2.15;;;;;;;5.10;100.00;102658.06;5167865;28;20109;-80
2022/01/18 06:08:54;;;;;;;9.05;2.30;;;;;;;5.10;100.00;102676.22;5175316;28;20408;-79
2022/01/18 06:11:24;;;;;;;11.55;2.35;;;;;;;5.16;100.00;102673.72;5180372;28;20026;-80
2022/01/18 06:13:54;;;;;;;12.95;2.88;;;;;;;5.18;100.00;102672.03;5160339;28;20357;-79
2022/01/18 06:16:26;;;;;;;9.73;2.28;;;;;;;5.19;100.00;102673.78;5163428;28;20053;-80
2022/01/18 06:18:57;;;;;;;9.32;2.20;;;;;;;5.15;100.00;102671.97;5178705;28;20027;-80
2022/01/18 06:21:28;;;;;;;8.73;2.20;;;;;;;5.16;100.00;102667.69;5165001;28;20377;-81
2022/01/18 06:23:58;;;;;;;8.40;2.42;;;;;;;5.21;100.00;102664.34;5178218;28;20030;-80
2022/01/18 06:26:28;;;;;;;12.05;2.42;;;;;;;5.15;100.00;102669.38;5170798;28;20397;-81
2022/01/18 06:29:00;;;;;;;12.23;3.38;;;;;;;5.10;100.00;102665.84;5168434;28;20034;-80
2022/01/18 06:31:30;;;;;;;8.57;2.42;;;;;;;5.17;100.00;102675.47;5179911;28;20025;-80
2022/01/18 06:34:00;;;;;;;7.25;2.47;;;;;;;5.17;100.00;102688.44;5178290;28;20023;-81
2022/01/18 06:36:31;;;;;;;8.63;2.05;;;;;;;5.15;100.00;102691.84;5156551;28;20101;-80
2022/01/18 06:39:01;;;;;;;8.80;2.42;;;;;;;5.17;100.00;102691.03;5165806;28;20060;-80
2022/01/18 06:41:32;;;;;;;8.77;2.03;;;;;;;5.27;100.00;102687.78;5185119;28;20121;-80
2022/01/18 06:44:02;;;;;;;6.32;1.70;;;;;;;5.28;100.00;102694.72;5179070;28;20077;-80
2022/01/18 06:46:32;;;;;;;6.50;2.00;;;;;;;5.37;100.00;102687.13;5175493;28;20061;-81
2022/01/18 06:49:03;;;;;;;4.97;1.60;;;;;;;5.36;100.00;102692.28;5161534;28;20861;-80
2022/01/18 06:51:34;;;;;;;7.53;2.05;;;;;;;5.33;100.00;102692.22;5165830;28;20117;-80
2022/01/18 06:54:04;;;;;;;8.00;1.52;;;;;;;5.36;100.00;102700.91;5185288;28;20080;-79
2022/01/18 06:56:34;;;;;;;7.05;1.58;;;;;;;5.30;100.00;102705.13;5169445;28;20116;-80
2022/01/18 06:59:07;;;;;;;3.67;1.20;;;;;;;5.26;100.00;102706.78;5178653;28;20030;-80
2022/01/18 07:01:38;;;;;;;6.78;1.50;;;;;;;5.31;100.00;102709.47;5178160;28;20030;-81
2022/01/18 07:04:08;;;;;;;2.67;1.13;;;;;;;5.35;100.00;102713.84;5177361;28;20041;-80
2022/01/18 07:06:39;;;;;;;6.40;1.42;;;;;;;5.24;100.00;102718.84;5169433;28;20026;-80
2022/01/18 07:09:09;;;;;;;4.55;1.30;;;;;;;5.33;100.00;102708.63;5174981;28;20052;-81
2022/01/18 07:11:39;;;;;;;3.70;1.35;;;;;;;5.37;100.00;102710.47;5168229;28;20229;-81
2022/01/18 07:14:10;;;;;;;4.65;1.40;;;;;;;5.32;100.00;102706.88;5167161;28;20036;-80
2022/01/18 07:16:40;;;;;;;4.68;1.63;;;;;;;5.21;100.00;102703.22;5177609;28;20044;-80
2022/01/18 07:19:10;;;;;;;8.77;2.28;;;;;;;5.23;100.00;102711.91;5163419;28;20034;-81
2022/01/18 07:21:41;;;;;;;8.15;1.80;;;;;;;5.43;100.00;102720.94;5174755;28;20044;-80
2022/01/18 07:24:25;;;;;;;7.00;1.90;;;;;;;5.38;100.00;102719.09;5162897;28;20404;-80
2022/01/18 07:26:55;;;;;;;6.35;1.80;;;;;;;5.24;100.00;102717.94;5171213;28;20461;-79
2022/01/18 07:29:25;;;;;;;6.05;2.58;;;;;;;5.23;100.00;102709.31;5173606;28;20113;-81
2022/01/18 07:31:56;;;;;;;7.38;2.40;;;;;;;5.24;100.00;102713.66;5179620;28;20069;-81
2022/01/18 07:34:27;;;;;;;8.75;2.50;;;;;;;5.38;100.00;102712.22;5166449;28;20062;-81
2022/01/18 07:36:57;;;;;;;6.88;2.08;;;;;;;5.29;100.00;102716.34;5170934;28;20022;-81
2022/01/18 07:39:28;;;;;;;6.82;2.50;;;;;;;5.44;100.00;102720.09;5180613;28;20053;-81
2022/01/18 07:41:58;;;;;;;5.43;2.42;;;;;;;5.32;100.00;102712.06;5171988;28;20045;-81
2022/01/18 07:44:30;;;;;;;8.25;2.80;;;;;;;5.37;100.00;102713.06;5173389;28;20033;-80
2022/01/18 07:47:00;;;;;;;6.85;3.40;;;;;;;5.47;100.00;102712.38;5168267;28;20032;-81
2022/01/18 07:49:30;;;;;;;7.55;2.95;;;;;;;5.44;100.00;102714.91;5184234;28;20026;-79
2022/01/18 07:52:00;;;;;;;8.35;3.45;;;;;;;5.45;100.00;102716.66;5168404;28;20184;-81
2022/01/18 07:54:31;;;;;;;8.50;2.72;;;;;;;5.74;100.00;102725.88;5184262;28;20029;-81
2022/01/18 07:57:02;;;;;;;8.50;3.30;;;;;;;6.12;100.00;102728.31;5185779;28;20085;-80
2022/01/18 07:59:32;;;;;;;6.15;3.08;;;;;;;6.26;100.00;102738.94;5184132;28;20045;-80
2022/01/18 08:02:03;;;;;;;10.57;4.47;;;;;;;6.17;100.00;102731.88;5186322;28;20026;-81
2022/01/18 08:04:33;;;;;;;8.13;3.70;;;;;;;6.07;100.00;102735.16;5172599;28;20042;-81
2022/01/18 08:07:03;;;;;;;7.90;3.80;;;;;;;5.88;100.00;102742.59;5163684;28;20435;-81
2022/01/18 08:09:34;;;;;;;7.53;4.50;;;;;;;5.85;100.00;102747.72;5182299;28;20034;-80
2022/01/18 08:12:06;;;;;;;11.70;4.32;;;;;;;5.89;100.00;102753.00;5170693;28;20032;-80
2022/01/18 08:14:41;;;;;;;13.15;5.68;;;;;;;5.94;100.00;102756.53;5170166;28;20023;-81
2022/01/18 08:17:12;;;;;;;;;;;;;;;5.98;100.00;102747.97;5161874;28;20042;-80
2022/01/18 08:19:42;;;;;;;8.17;4.87;;;;;;;5.86;100.00;102755.53;5180587;28;20208;-80
2022/01/18 08:22:13;;;;;;;9.32;4.68;;;;;;;5.87;100.00;102756.38;5171537;28;20893;-80
2022/01/18 08:24:43;;;;;;;11.25;5.43;;;;;;;5.76;100.00;102763.09;5179956;28;20026;-80
2022/01/18 08:27:14;;;;;;;11.80;5.10;;;;;;;5.73;100.00;102763.91;5160186;28;20022;-80
2022/01/18 08:29:44;;;;;;;13.80;6.00;;;;;;;5.68;100.00;102765.53;5178515;28;20033;-80
2022/01/18 08:32:16;;;;;;;11.88;4.97;;;;;;;5.82;100.00;102763.22;5159888;28;20030;-80
2022/01/18 08:34:47;;;;;;;11.30;5.20;;;;;;;5.90;100.00;102774.63;5183627;28;20017;-80
2022/01/18 08:37:17;;;;;;;11.35;4.93;;;;;;;5.83;100.00;102767.56;5165761;28;20121;-81
2022/01/18 08:39:47;;;;;;;7.47;4.07;;;;;;;6.05;100.00;102768.00;5178328;28;20029;-81
2022/01/18 08:42:17;;;;;;;13.82;4.47;;;;;;;6.02;100.00;102772.25;5176437;28;20391;-81
2022/01/18 08:44:48;;;;;;;10.05;4.00;;;;;;;5.99;100.00;102772.19;5175768;28;20029;-81
2022/01/18 08:47:18;;;;;;;10.45;4.10;;;;;;;6.00;100.00;102763.56;5175220;28;20026;-81
2022/01/18 08:49:49;;;;;;;12.52;4.13;;;;;;;6.08;100.00;102767.19;5185327;28;20025;-82
2022/01/18 08:52:20;;;;;;;13.32;4.13;;;;;;;6.35;100.00;102768.53;5174598;28;20030;-80
2022/01/18 08:54:50;;;;;;;12.63;3.75;;;;;;;6.25;100.00;102768.34;5185090;28;20030;-81
2022/01/18 08:57:21;;;;;;;14.32;4.22;;;;;;;6.16;100.00;102779.44;5174072;28;20029;-80
2022/01/18 08:59:53;;;;;;;10.45;4.65;;;;;;;6.28;100.00;102771.00;5164400;28;20037;-82
2022/01/18 09:02:24;;;;;;;10.55;4.90;;;;;;;6.37;100.00;102781.50;5177100;28;20213;-81
2022/01/18 09:04:54;;;;;;;12.10;5.22;;;;;;;6.44;100.00;102770.41;5164064;28;20049;-82
2022/01/18 09:07:24;;;;;;;12.60;4.88;;;;;;;6.29;100.00;102773.59;5167355;28;20029;-81
2022/01/18 09:10:03;;;;;;;11.38;4.70;;;;;;;6.34;100.00;102781.47;5173553;28;20046;-80
2022/01/18 09:12:34;;;;;;;12.50;5.25;;;;;;;6.55;100.00;102779.22;5163865;28;20100;-81
2022/01/18 09:15:06;;;;;;;11.93;5.32;;;;;;;6.52;100.00;102781.78;5172249;28;20026;-81
2022/01/18 09:17:38;;;;;;;13.00;4.75;;;;;;;6.45;100.00;102785.13;5158005;28;20030;-81
2022/01/18 09:20:11;;;;;;;13.93;5.28;;;;;;;6.54;100.00;102790.47;5165356;28;20022;-81
2022/01/18 09:22:44;;;;;;;11.82;5.70;;;;;;;6.67;100.00;102792.41;5159212;28;20035;-81
2022/01/18 09:25:23;;;;;;;16.23;6.78;;;;;;;6.58;100.00;102787.09;5169901;28;20061;-82
2022/01/18 09:27:54;;;;;;;16.35;6.97;;;;;;;6.57;100.00;102791.38;5168106;28;20026;-80
2022/01/18 09:30:28;;;;;;;14.85;6.60;;;;;;;6.55;100.00;102797.41;5163278;28;20018;-81
2022/01/18 09:32:59;;;;;;;18.05;6.70;;;;;;;6.66;100.00;102798.47;5170151;28;20057;-79
2022/01/18 09:35:29;;;;;;;16.27;6.90;;;;;;;6.55;100.00;102787.00;5178140;28;20045;-80
2022/01/18 09:38:00;;;;;;;16.05;6.90;;;;;;;6.64;100.00;102792.38;5169760;28;20117;-80
2022/01/18 09:40:37;;;;;;;22.17;7.15;;;;;;;6.62;100.00;102794.94;5174558;28;20245;-82
2022/01/18 09:43:11;;;;;;;14.70;7.97;;;;;;;6.58;100.00;102793.13;5175660;28;20026;-82
2022/01/18 09:45:43;;;;;;;14.95;7.78;;;;;;;6.55;100.00;102797.41;5163750;28;20033;-83
2022/01/18 09:48:14;;;;;;;15.52;7.95;;;;;;;6.57;100.00;102806.13;5177925;28;20057;-81
2022/01/18 09:50:45;;;;;;;14.55;7.75;;;;;;;6.62;100.00;102794.06;5176670;28;20030;-80
2022/01/18 09:53:16;;;;;;;14.55;8.00;;;;;;;6.71;100.00;102804.59;5172326;28;20022;-81
2022/01/18 09:55:48;;;;;;;16.65;7.65;;;;;;;6.65;100.00;102804.50;5166307;28;20021;-82
2022/01/18 09:58:20;;;;;;;17.00;7.82;;;;;;;6.92;100.00;102811.00;5173595;28;20080;-82
2022/01/18 10:00:52;;;;;;;17.85;8.60;;;;;;;6.91;100.00;102809.25;5177660;28;20026;-82
2022/01/18 10:03:34;;;;;;;16.65;8.48;;;;;;;7.09;100.00;102811.25;5169919;28;20101;-82
2022/01/18 10:06:06;;;;;;;18.20;8.55;;;;;;;6.99;100.00;102818.06;5175954;28;20021;-81
2022/01/18 10:08:39;;;;;;;15.65;8.02;;;;;;;6.96;100.00;102810.19;5182897;28;20511;-81
2022/01/18 10:11:16;;;;;;;14.30;7.75;;;;;;;6.76;100.00;102801.22;5174208;28;20025;-82
2022/01/18 10:13:49;;;;;;;13.15;7.63;;;;;;;6.86;100.00;102803.13;5180975;28;20018;-82
2022/01/18 10:16:23;;;;;;;13.48;8.13;;;;;;;7.01;100.00;102800.75;5172545;28;20284;-82
2022/01/18 10:19:05;;;;;;;17.90;8.20;;;;;;;7.08;100.00;102796.50;5170423;28;20057;-81
2022/01/18 10:21:41;;;;;;;13.85;7.47;;;;;;;7.14;100.00;102791.38;5175249;28;20347;-81
2022/01/18 10:24:20;;;;;;;22.42;10.73;;;;;;;7.19;100.00;102787.13;5172968;28;20052;-82
2022/01/18 10:26:53;;;;;;;16.88;8.98;;;;;;;7.13;100.00;102789.66;5178190;28;20034;-81
2022/01/18 10:29:30;;;;;;;15.60;6.93;;;;;;;7.09;100.00;102782.66;5164216;28;20069;-81
2022/01/18 10:32:10;;;;;;;19.90;8.52;;;;;;;7.22;100.00;102780.25;5165733;28;20030;-81
2022/01/18 10:37:29;;;;;;;14.52;8.02;;;;;;;7.18;100.00;102787.97;5164812;28;20074;-81
2022/01/18 10:40:26;;;;;;;17.63;7.90;;;;;;;7.12;100.00;102787.91;5172600;28;20018;-80
2022/01/18 10:43:03;;;;;;;15.75;8.15;;;;;;;7.24;100.00;102781.13;5165617;28;20033;-80
2022/01/18 10:45:37;;;;;;;18.52;8.43;;;;;;;7.33;100.00;102789.06;5160901;28;20026;-82
2022/01/18 10:48:10;;;;;;;19.15;8.27;;;;;;;7.37;100.00;102791.69;5174693;28;20014;-81
2022/01/18 10:50:45;;;;;;;44.38;18.55;;;;;;;7.48;100.00;102784.03;5184232;28;20042;-81
2022/01/18 10:53:17;;;;;;;;;;;;;;;7.39;100.00;102784.78;5176736;28;20030;-81
2022/01/18 10:56:08;;;;;;;29.73;13.60;;;;;;;7.51;100.00;102773.69;5176668;28;19920;-82
2022/01/18 10:58:47;;;;;;;14.55;6.40;;;;;;;7.45;100.00;102768.38;5183925;28;20026;-80
2022/01/18 11:01:21;;;;;;;13.88;8.05;;;;;;;7.60;100.00;102763.38;5180205;28;20033;-82
2022/01/18 11:04:06;;;;;;;12.50;6.32;;;;;;;7.47;100.00;102766.66;5158528;28;20082;-82
2022/01/18 11:06:38;;;;;;;19.13;8.17;;;;;;;7.71;100.00;102757.41;5157804;28;20037;-82
2022/01/18 11:09:13;;;;;;;13.35;6.47;;;;;;;7.74;100.00;102759.19;5172294;28;20022;-82
2022/01/18 11:11:46;;;;;;;13.40;5.65;;;;;;;7.84;100.00;102750.63;5185871;28;20025;-82
2022/01/18 11:14:19;;;;;;;18.25;5.50;;;;;;;7.98;100.00;102751.63;5181661;28;20045;-82
2022/01/18 11:16:51;;;;;;;12.73;5.80;;;;;;;8.12;100.00;102753.53;5178292;28;20328;-82
2022/01/18 11:21:58;;;;;;;16.75;6.30;;;;;;;8.12;100.00;102750.91;5176303;28;20098;-81
2022/01/18 11:24:30;;;;;;;13.18;6.32;;;;;;;8.05;100.00;102756.06;5170415;28;20052;-82
2022/01/18 11:27:03;;;;;;;12.55;5.90;;;;;;;8.14;100.00;102743.09;5169860;28;20025;-82
2022/01/18 11:29:35;;;;;;;15.50;5.60;;;;;;;8.03;100.00;102732.59;5176037;28;20038;-80
2022/01/18 11:32:06;;;;;;;15.80;5.60;;;;;;;8.03;100.00;102736.94;5154575;28;20038;-81
2022/01/18 11:34:43;;;;;;;13.60;6.07;;;;;;;8.02;100.00;102733.44;5175550;28;20042;-81
2022/01/18 11:37:21;;;;;;;15.13;5.82;;;;;;;7.98;100.00;102726.47;5169329;28;20518;-80
2022/01/18 11:39:59;;;;;;;17.08;8.05;;;;;;;8.03;100.00;102734.34;5173544;28;20026;-81
2022/01/18 11:42:39;;;;;;;13.02;5.22;;;;;;;7.97;100.00;102731.66;5174780;28;20464;-81
2022/01/18 11:45:24;;;;;;;16.38;5.30;;;;;;;8.06;100.00;102737.81;5166986;28;20416;-81
2022/01/18 11:48:07;;;;;;;13.15;5.25;;;;;;;8.17;100.00;102744.00;5165837;28;20147;-81
2022/01/18 11:50:42;;;;;;;13.05;5.68;;;;;;;8.15;100.00;102737.91;5167706;28;20038;-82
2022/01/18 11:53:40;;;;;;;13.38;5.70;;;;;;;8.02;100.00;102728.25;5176896;28;20484;-81
2022/01/18 11:56:30;;;;;;;16.23;5.47;;;;;;;8.16;100.00;102731.84;5176348;28;20611;-82
2022/01/18 11:59:16;;;;;;;14.38;5.22;;;;;;;8.16;100.00;102737.06;5173434;28;20030;-82
2022/01/18 12:01:51;;;;;;;14.02;4.32;;;;;;;8.36;100.00;102735.50;5181448;28;20022;-80
2022/01/18 12:07:31;;;;;;;13.50;4.07;;;;;;;8.40;100.00;102739.88;5176243;28;20438;-82
2022/01/18 12:10:08;;;;;;;13.80;3.90;;;;;;;8.41;100.00;102743.38;5168778;28;20022;-82
2022/01/18 12:12:46;;;;;;;11.88;4.10;;;;;;;8.24;100.00;102743.22;5176815;28;20030;-81
2022/01/18 12:15:17;;;;;;;13.77;3.92;;;;;;;8.42;100.00;102739.91;5176094;28;20030;-82
2022/01/18 12:17:51;;;;;;;13.23;5.28;;;;;;;8.28;100.00;102745.03;5180431;28;20061;-82
2022/01/18 12:20:48;;;;;;;10.48;4.40;;;;;;;8.27;100.00;102740.66;5174344;28;20073;-81
2022/01/18 12:23:21;;;;;;;13.43;4.95;;;;;;;8.20;100.00;102738.84;5182123;28;20108;-81
2022/01/18 12:34:30;;;;;;;10.90;5.22;;;;;;;8.07;100.00;102742.16;5175120;28;20030;-81
2022/01/18 12:37:20;;;;;;;14.95;5.07;;;;;;;8.07;100.00;102736.97;5175330;28;20026;-82
2022/01/18 12:39:54;;;;;;;22.05;8.10;;;;;;;7.96;100.00;102737.72;5170773;28;20034;-80
2022/01/18 12:45:23;;;;;;;21.00;10.25;;;;;;;8.00;100.00;102749.91;5171362;28;20309;-80
2022/01/18 12:47:59;;;;;;;21.08;9.07;;;;;;;8.17;100.00;102744.00;5171457;28;20503;-80
2022/01/18 12:50:31;;;;;;;15.23;5.22;;;;;;;8.22;100.00;102744.94;5172684;28;20507;-80
2022/01/18 12:53:16;;;;;;;14.13;3.88;;;;;;;8.24;100.00;102745.81;5169858;28;20040;-82
2022/01/18 12:55:54;;;;;;;10.77;3.80;;;;;;;8.23;100.00;102738.00;5171403;28;20026;-82
2022/01/18 12:58:30;;;;;;;12.25;3.63;;;;;;;8.11;100.00;102733.53;5142230;28;20554;-82
2022/01/18 13:01:16;;;;;;;12.60;3.72;;;;;;;8.16;100.00;102726.63;5178590;28;20073;-82
2022/01/18 13:03:49;;;;;;;13.18;4.28;;;;;;;8.05;100.00;102723.06;5179245;28;20050;-81